Time;durP1;ratioP1;P1;durP2;ratioP2;P2;SDS_P1;SDS_P2;PMS_P1;PMS_P2;Temp;Humidity;BMP_temperature;BMP_pressure;BME280_temperature;BME280_humidity;BME280_pressure;Samples;Min_cycle;Max_cycle;Signal;HPM_P1;HPM_P2
2021/06/20 00:00:52;;;;;;;10.95;4.85;;;17.30;73.50;;;;;;4962431;28;20488;-78
2021/06/20 00:03:18;;;;;;;11.55;5.70;;;17.30;73.60;;;;;;4962670;28;20035;-78
2021/06/20 00:05:54;;;;;;;10.98;5.13;;;17.30;73.90;;;;;;4962286;28;20028;-77
2021/06/20 00:08:21;;;;;;;12.20;5.03;;;17.30;73.90;;;;;;4962202;28;20038;-77
2021/06/20 00:10:49;;;;;;;9.20;5.32;;;17.30;73.60;;;;;;4962014;28;20453;-77
2021/06/20 00:13:16;;;;;;;11.43;5.28;;;17.30;73.50;;;;;;4962278;28;20023;-78
2021/06/20 00:15:42;;;;;;;9.82;4.53;;;17.40;73.20;;;;;;4961918;28;20066;-77
2021/06/20 00:18:08;;;;;;;10.05;4.75;;;17.40;73.20;;;;;;4962131;28;20039;-78
2021/06/20 00:20:37;;;;;;;12.48;4.78;;;17.40;73.20;;;;;;4962049;28;20019;-77
2021/06/20 00:23:03;;;;;;;9.43;5.00;;;17.30;73.40;;;;;;4961897;28;20024;-77
2021/06/20 00:25:29;;;;;;;9.38;5.22;;;17.40;73.40;;;;;;4958481;28;20024;-77
2021/06/20 00:27:56;;;;;;;12.55;6.38;;;17.40;73.50;;;;;;4952360;29;20027;-78
2021/06/20 00:30:25;;;;;;;11.10;5.07;;;17.30;73.60;;;;;;4961762;28;20051;-78
2021/06/20 00:32:51;;;;;;;7.45;4.75;;;17.40;73.40;;;;;;4961936;28;20020;-78
2021/06/20 00:35:18;;;;;;;10.10;5.47;;;17.30;73.40;;;;;;4959588;28;20027;-78
2021/06/20 00:37:45;;;;;;;9.40;5.18;;;17.30;73.60;;;;;;4960199;29;20090;-77
2021/06/20 00:40:11;;;;;;;7.68;4.80;;;17.30;73.50;;;;;;4961427;28;20047;-77
2021/06/20 00:42:37;;;;;;;8.23;5.10;;;17.30;73.30;;;;;;4960690;28;20086;-77
2021/06/20 00:45:05;;;;;;;15.15;5.53;;;17.20;73.60;;;;;;4961452;28;20027;-77
2021/06/20 00:47:31;;;;;;;12.10;5.47;;;17.20;73.20;;;;;;4961518;28;20027;-77
2021/06/20 00:49:57;;;;;;;9.70;5.57;;;17.20;72.90;;;;;;4961336;28;20031;-77
2021/06/20 00:52:23;;;;;;;10.35;5.13;;;17.20;73.00;;;;;;4961424;28;20032;-78
2021/06/20 00:54:49;;;;;;;10.27;5.07;;;17.20;72.90;;;;;;4943202;28;20027;-77
2021/06/20 00:57:19;;;;;;;8.38;4.50;;;17.10;72.80;;;;;;4942066;29;20411;-78
2021/06/20 00:59:46;;;;;;;9.25;4.68;;;17.10;72.30;;;;;;4954127;29;20020;-78
2021/06/20 01:02:13;;;;;;;8.50;4.40;;;17.10;72.10;;;;;;4961437;28;20090;-77
2021/06/20 01:04:40;;;;;;;10.50;5.38;;;17.00;71.80;;;;;;4961185;28;20027;-78
2021/06/20 01:07:06;;;;;;;17.58;5.68;;;17.00;72.80;;;;;;4960891;28;20031;-77
2021/06/20 01:09:32;;;;;;;14.48;6.07;;;17.00;72.90;;;;;;4960976;28;20023;-77
2021/06/20 01:11:59;;;;;;;10.35;5.40;;;17.00;72.70;;;;;;4961054;28;20027;-77
2021/06/20 01:14:25;;;;;;;13.63;5.90;;;17.00;72.60;;;;;;4961185;28;20058;-77
2021/06/20 01:16:53;;;;;;;12.65;5.40;;;16.90;72.90;;;;;;4961022;28;20063;-77
2021/06/20 01:19:19;;;;;;;11.85;4.90;;;16.90;72.60;;;;;;4961215;28;20489;-77
2021/06/20 01:21:46;;;;;;;11.88;5.30;;;16.90;72.30;;;;;;4960857;28;20031;-77
2021/06/20 01:24:12;;;;;;;7.90;4.50;;;16.90;72.80;;;;;;4960839;28;20020;-77
2021/06/20 01:26:39;;;;;;;12.80;4.90;;;16.90;72.60;;;;;;4946780;28;20031;-77
2021/06/20 01:29:09;;;;;;;9.48;4.93;;;16.80;72.40;;;;;;4960286;29;20059;-77
2021/06/20 01:31:36;;;;;;;9.93;5.35;;;16.90;72.50;;;;;;4959397;29;20033;-77
2021/06/20 01:34:05;;;;;;;8.10;4.97;;;16.80;72.90;;;;;;4959802;28;20027;-77
2021/06/20 01:36:32;;;;;;;11.55;4.95;;;16.80;72.60;;;;;;4960461;28;20031;-77
2021/06/20 01:38:58;;;;;;;7.22;4.60;;;16.80;72.20;;;;;;4960289;28;20016;-77
2021/06/20 01:41:25;;;;;;;7.97;4.70;;;16.80;71.90;;;;;;4958737;29;20471;-78
2021/06/20 01:43:50;;;;;;;10.68;5.53;;;16.80;72.00;;;;;;4959086;29;20126;-77
2021/06/20 01:46:16;;;;;;;13.52;6.25;;;16.80;72.10;;;;;;4960017;28;20031;-78
2021/06/20 01:48:42;;;;;;;11.25;5.32;;;16.70;72.30;;;;;;4960429;29;20055;-78
2021/06/20 01:51:08;;;;;;;9.38;5.30;;;16.70;72.80;;;;;;4960389;28;20035;-78
2021/06/20 01:53:34;;;;;;;9.35;5.75;;;16.70;73.20;;;;;;4960192;28;20529;-77
2021/06/20 01:56:00;;;;;;;10.27;5.78;;;16.60;73.40;;;;;;4960073;29;20027;-78
2021/06/20 01:58:26;;;;;;;10.23;5.20;;;16.60;73.20;;;;;;4960217;28;20074;-77
2021/06/20 02:00:53;;;;;;;14.32;5.88;;;16.60;73.10;;;;;;4960004;28;20082;-77
2021/06/20 02:03:23;;;;;;;10.32;5.35;;;16.60;73.10;;;;;;4960464;28;20023;-78
2021/06/20 02:05:51;;;;;;;12.20;5.60;;;16.60;73.00;;;;;;4960250;28;20038;-77
2021/06/20 02:08:19;;;;;;;13.68;5.68;;;16.60;72.60;;;;;;4959948;28;20034;-77
2021/06/20 02:10:49;;;;;;;12.23;5.18;;;16.50;73.00;;;;;;4959833;28;20023;-77
2021/06/20 02:13:16;;;;;;;13.70;6.15;;;16.50;72.60;;;;;;4950248;28;20031;-77
2021/06/20 02:15:42;;;;;;;10.90;5.80;;;16.50;73.50;;;;;;4957177;29;20062;-77
2021/06/20 02:18:08;;;;;;;12.48;5.53;;;16.50;73.20;;;;;;4960047;28;20066;-77
2021/06/20 02:20:34;;;;;;;10.65;5.45;;;16.50;73.10;;;;;;4959737;28;20030;-77
2021/06/20 02:23:00;;;;;;;12.38;6.05;;;16.40;72.70;;;;;;4959721;28;20482;-77
2021/06/20 02:25:26;;;;;;;8.50;5.10;;;16.40;72.50;;;;;;4956875;28;20035;-77
2021/06/20 02:27:53;;;;;;;10.65;5.45;;;16.40;72.40;;;;;;4949903;29;20103;-77
2021/06/20 02:30:20;;;;;;;9.27;4.95;;;16.30;72.30;;;;;;4959649;28;20024;-77
2021/06/20 02:32:47;;;;;;;9.68;5.40;;;16.40;72.20;;;;;;4960046;28;20011;-77
2021/06/20 02:35:15;;;;;;;12.63;5.70;;;16.40;72.60;;;;;;4958455;28;20031;-77
2021/06/20 02:37:43;;;;;;;11.73;5.53;;;16.30;72.80;;;;;;4959439;28;20020;-77
2021/06/20 02:40:10;;;;;;;10.75;6.25;;;16.30;74.00;;;;;;4959277;28;20395;-77
2021/06/20 02:42:37;;;;;;;10.63;5.97;;;16.30;75.00;;;;;;4959462;28;20052;-77
2021/06/20 02:45:08;;;;;;;11.38;6.25;;;16.20;75.20;;;;;;4959419;28;20479;-77
2021/06/20 02:47:35;;;;;;;12.63;6.57;;;16.20;75.20;;;;;;4959516;28;20051;-77
2021/06/20 02:50:01;;;;;;;12.40;5.93;;;16.20;76.30;;;;;;4959442;28;20034;-77
2021/06/20 02:52:27;;;;;;;9.00;5.57;;;16.20;75.40;;;;;;4959288;28;20043;-77
2021/06/20 02:54:52;;;;;;;14.00;6.40;;;16.20;75.20;;;;;;4958015;29;20420;-77
2021/06/20 02:57:23;;;;;;;14.13;7.13;;;16.20;75.70;;;;;;4958883;28;20493;-77
2021/06/20 02:59:50;;;;;;;11.95;6.07;;;16.20;76.00;;;;;;4954097;29;20106;-77
2021/06/20 03:02:17;;;;;;;10.52;6.07;;;16.10;76.10;;;;;;4959347;28;20057;-77
2021/06/20 03:04:43;;;;;;;13.55;6.07;;;16.20;75.60;;;;;;4959347;28;20023;-77
2021/06/20 03:07:09;;;;;;;10.63;5.97;;;16.20;76.20;;;;;;4958847;28;20019;-77
2021/06/20 03:09:35;;;;;;;12.05;6.40;;;16.20;76.30;;;;;;4957932;29;20031;-77
2021/06/20 03:12:02;;;;;;;11.18;5.82;;;16.10;77.00;;;;;;4959154;28;20028;-77
2021/06/20 03:14:28;;;;;;;11.23;6.45;;;16.10;76.40;;;;;;4959261;28;20039;-77
2021/06/20 03:16:54;;;;;;;10.68;6.03;;;16.10;76.70;;;;;;4959118;28;20475;-77
2021/06/20 03:19:20;;;;;;;12.18;5.85;;;16.10;76.60;;;;;;4959236;28;20023;-77
2021/06/20 03:21:46;;;;;;;12.30;6.93;;;16.10;76.40;;;;;;4958715;29;20028;-77
2021/06/20 03:24:12;;;;;;;12.90;6.30;;;16.10;76.60;;;;;;4959385;28;20070;-77
2021/06/20 03:26:38;;;;;;;12.23;6.07;;;16.10;76.60;;;;;;4946917;28;20055;-77
2021/06/20 03:29:04;;;;;;;10.38;6.30;;;16.10;76.30;;;;;;4958384;29;20099;-78
2021/06/20 03:31:30;;;;;;;12.02;6.07;;;16.10;76.60;;;;;;4959079;28;20055;-78
2021/06/20 03:33:58;;;;;;;12.63;5.78;;;16.10;76.20;;;;;;4957746;28;20019;-81
2021/06/20 03:36:25;;;;;;;12.57;6.40;;;16.10;77.20;;;;;;4958965;28;20126;-78
2021/06/20 03:38:51;;;;;;;14.05;7.70;;;16.10;76.30;;;;;;4946147;29;20019;-76
2021/06/20 03:41:17;;;;;;;15.10;6.07;;;16.10;76.60;;;;;;4959002;28;20158;-76
2021/06/20 03:43:44;;;;;;;11.65;6.00;;;16.00;76.00;;;;;;4957788;29;20075;-77
2021/06/20 03:46:10;;;;;;;12.43;6.10;;;16.00;76.30;;;;;;4959201;28;20031;-77
2021/06/20 03:48:38;;;;;;;12.30;7.70;;;16.10;76.20;;;;;;4959127;28;20050;-77
2021/06/20 03:51:04;;;;;;;11.02;6.38;;;16.10;76.00;;;;;;4958792;28;20058;-77
2021/06/20 03:53:30;;;;;;;16.05;6.68;;;16.10;76.20;;;;;;4958742;28;20023;-77
2021/06/20 03:55:57;;;;;;;10.90;6.00;;;16.10;76.40;;;;;;4958523;28;20046;-77
2021/06/20 03:58:23;;;;;;;12.88;6.35;;;16.10;76.00;;;;;;4958896;28;20024;-77
2021/06/20 04:00:49;;;;;;;11.55;6.80;;;16.10;75.90;;;;;;4958697;28;20038;-76
2021/06/20 04:03:15;;;;;;;10.30;6.15;;;16.10;75.80;;;;;;4959036;28;20438;-77
2021/06/20 04:05:40;;;;;;;13.32;5.88;;;16.00;77.00;;;;;;4958530;28;20184;-77
2021/06/20 04:08:07;;;;;;;11.48;5.63;;;16.00;75.30;;;;;;4958604;28;20027;-80
2021/06/20 04:10:33;;;;;;;9.38;7.03;;;16.00;75.00;;;;;;4961483;28;20494;-76
2021/06/20 04:12:59;;;;;;;12.15;5.80;;;16.00;75.00;;;;;;4962500;28;20027;-79
2021/06/20 04:15:26;;;;;;;9.32;5.43;;;16.00;74.70;;;;;;4961871;28;20023;-73
2021/06/20 04:17:52;;;;;;;9.93;5.43;;;16.00;74.40;;;;;;4962170;28;20019;-77
2021/06/20 04:20:18;;;;;;;11.60;5.38;;;16.00;74.40;;;;;;4960596;29;20031;-81
2021/06/20 04:22:44;;;;;;;12.25;6.03;;;15.90;74.10;;;;;;4962050;28;20024;-78
2021/06/20 04:25:13;;;;;;;9.85;5.25;;;15.90;74.10;;;;;;4959686;29;20024;-73
2021/06/20 04:27:44;;;;;;;7.18;5.25;;;15.90;74.00;;;;;;4949152;29;20430;-73
2021/06/20 04:30:12;;;;;;;10.93;5.68;;;15.90;73.80;;;;;;4961802;28;20474;-75
2021/06/20 04:32:39;;;;;;;10.43;5.30;;;15.90;73.90;;;;;;4961784;29;20034;-73
2021/06/20 04:35:06;;;;;;;9.65;5.30;;;15.90;73.80;;;;;;4960441;28;20027;-76
2021/06/20 04:37:32;;;;;;;10.82;5.60;;;15.90;73.80;;;;;;4961547;29;20037;-77
2021/06/20 04:39:58;;;;;;;8.65;5.80;;;15.90;73.90;;;;;;4958875;28;20051;-81
2021/06/20 04:42:32;;;;;;;12.00;6.63;;;15.90;74.30;;;;;;4961226;29;20027;-79
2021/06/20 04:44:59;;;;;;;11.75;5.75;;;15.90;74.40;;;;;;4961344;28;20035;-75
2021/06/20 04:47:26;;;;;;;13.32;7.28;;;16.00;75.00;;;;;;4961563;28;20430;-74
2021/06/20 04:49:53;;;;;;;11.20;6.22;;;16.10;75.50;;;;;;4961253;28;20053;-77
2021/06/20 04:52:19;;;;;;;8.75;6.20;;;16.10;75.80;;;;;;4961149;28;20023;-77
2021/06/20 04:54:50;;;;;;;8.98;5.95;;;16.10;75.70;;;;;;4959785;29;20027;-77
2021/06/20 04:57:21;;;;;;;12.07;6.35;;;16.10;75.60;;;;;;4961456;28;20027;-77
2021/06/20 04:59:47;;;;;;;10.70;6.53;;;16.10;75.60;;;;;;4961081;28;20030;-77
2021/06/20 05:02:14;;;;;;;9.45;5.80;;;16.10;75.70;;;;;;4961132;28;20030;-78
2021/06/20 05:04:41;;;;;;;12.73;7.65;;;16.20;75.80;;;;;;4956308;28;20028;-80
2021/06/20 05:07:08;;;;;;;42.15;29.35;;;16.20;75.70;;;;;;4949166;28;20023;-79
2021/06/20 05:09:34;;;;;;;27.92;16.48;;;16.20;75.80;;;;;;4954946;28;20032;-77
2021/06/20 05:12:00;;;;;;;16.35;9.82;;;16.20;76.10;;;;;;4952427;29;20086;-76
2021/06/20 05:14:26;;;;;;;15.25;8.30;;;16.20;76.10;;;;;;4950595;28;20037;-77
2021/06/20 05:16:52;;;;;;;13.32;7.72;;;16.20;76.20;;;;;;4948344;28;20058;-76
2021/06/20 05:19:18;;;;;;;13.23;7.70;;;16.20;76.10;;;;;;4951102;29;20544;-77
2021/06/20 05:21:44;;;;;;;17.33;7.78;;;16.20;76.20;;;;;;4942383;28;20059;-76
2021/06/20 05:24:10;;;;;;;11.25;6.63;;;16.20;76.40;;;;;;4945999;28;20015;-77
2021/06/20 05:26:36;;;;;;;16.05;6.40;;;16.30;76.40;;;;;;4953302;29;20027;-77
2021/06/20 05:29:02;;;;;;;13.55;7.18;;;16.30;76.50;;;;;;4951356;29;20514;-75
2021/06/20 05:31:28;;;;;;;11.18;6.43;;;16.30;76.50;;;;;;4955144;28;20038;-77
2021/06/20 05:33:54;;;;;;;14.35;7.05;;;16.30;76.60;;;;;;4955431;28;20483;-77
2021/06/20 05:36:20;;;;;;;15.32;6.50;;;16.30;77.40;;;;;;4961635;28;20023;-77
2021/06/20 05:38:46;;;;;;;13.27;7.63;;;16.30;76.70;;;;;;4959799;29;20069;-77
2021/06/20 05:41:12;;;;;;;17.35;7.38;;;16.30;76.70;;;;;;4960453;28;20024;-75
2021/06/20 05:43:38;;;;;;;15.75;6.43;;;16.40;76.70;;;;;;4960271;28;20082;-76
2021/06/20 05:46:04;;;;;;;14.55;7.05;;;16.40;77.10;;;;;;4960303;28;20030;-75
2021/06/20 05:48:30;;;;;;;13.80;6.85;;;16.40;77.20;;;;;;4960440;29;20470;-75
2021/06/20 05:50:56;;;;;;;12.85;6.13;;;16.40;77.10;;;;;;4960203;28;20016;-75
2021/06/20 05:53:23;;;;;;;11.35;6.72;;;16.50;77.60;;;;;;4958721;29;20106;-75
2021/06/20 05:55:49;;;;;;;9.95;6.40;;;16.50;77.50;;;;;;4958572;29;20386;-76
2021/06/20 05:58:15;;;;;;;12.50;6.45;;;16.60;77.40;;;;;;4960207;28;20030;-76
2021/06/20 06:00:41;;;;;;;13.20;6.95;;;16.60;77.60;;;;;;4960012;28;20371;-76
2021/06/20 06:03:07;;;;;;;10.77;6.85;;;16.70;77.90;;;;;;4960106;28;20110;-76
2021/06/20 06:05:33;;;;;;;14.10;6.50;;;16.70;77.80;;;;;;4947141;29;20047;-75
2021/06/20 06:08:00;;;;;;;15.80;7.18;;;16.80;77.90;;;;;;4959819;28;20091;-76
2021/06/20 06:10:27;;;;;;;11.00;7.05;;;16.80;78.00;;;;;;4959729;28;20047;-76
2021/06/20 06:12:54;;;;;;;10.32;7.00;;;16.90;78.10;;;;;;4960142;28;20094;-75
2021/06/20 06:15:20;;;;;;;10.60;7.00;;;17.00;78.40;;;;;;4959605;28;20015;-75
2021/06/20 06:17:46;;;;;;;14.18;6.88;;;17.10;78.60;;;;;;4959865;28;20054;-75
2021/06/20 06:20:14;;;;;;;14.88;6.75;;;17.20;78.90;;;;;;4959661;28;20648;-76
2021/06/20 06:22:39;;;;;;;16.42;6.68;;;17.30;78.90;;;;;;4959784;29;20038;-76
2021/06/20 06:25:06;;;;;;;14.77;6.65;;;17.40;78.90;;;;;;4959274;28;20016;-77
2021/06/20 06:27:31;;;;;;;13.60;6.35;;;17.50;78.60;;;;;;4947086;29;20031;-77
2021/06/20 06:29:57;;;;;;;13.73;6.78;;;17.50;78.60;;;;;;4959377;28;20082;-77
2021/06/20 06:32:23;;;;;;;14.90;7.05;;;17.50;78.80;;;;;;4946320;29;20049;-76
2021/06/20 06:34:49;;;;;;;12.48;6.53;;;17.50;78.30;;;;;;4956985;29;20031;-77
2021/06/20 06:37:15;;;;;;;14.25;7.05;;;17.60;78.30;;;;;;4952801;29;20487;-76
2021/06/20 06:39:41;;;;;;;13.43;7.88;;;17.60;78.40;;;;;;4952982;29;20074;-77
2021/06/20 06:42:08;;;;;;;10.60;6.18;;;17.60;78.40;;;;;;4946820;29;20034;-77
2021/06/20 06:44:34;;;;;;;15.35;6.90;;;17.70;78.80;;;;;;4959480;28;20023;-77
2021/06/20 06:47:00;;;;;;;13.25;6.60;;;17.70;78.80;;;;;;4946588;29;20118;-76
2021/06/20 06:49:26;;;;;;;12.38;6.28;;;17.90;79.20;;;;;;4959305;28;20023;-76
2021/06/20 06:51:52;;;;;;;13.50;5.93;;;18.00;79.50;;;;;;4959182;29;20031;-76
2021/06/20 06:54:18;;;;;;;11.60;5.88;;;18.20;79.30;;;;;;4959141;29;20031;-77
2021/06/20 06:56:45;;;;;;;13.85;5.50;;;18.40;79.10;;;;;;4959301;28;20501;-77
2021/06/20 06:59:11;;;;;;;11.10;5.32;;;18.40;78.60;;;;;;4958930;28;20031;-77
2021/06/20 07:01:37;;;;;;;12.13;5.95;;;18.40;78.50;;;;;;4959270;28;20019;-77
2021/06/20 07:04:04;;;;;;;10.93;5.25;;;18.40;78.50;;;;;;4958994;28;20030;-77
2021/06/20 07:06:29;;;;;;;9.85;5.43;;;18.40;78.30;;;;;;4957659;29;20031;-76
2021/06/20 07:08:55;;;;;;;10.35;5.40;;;18.50;78.20;;;;;;4958763;29;20027;-76
2021/06/20 07:11:22;;;;;;;11.82;5.18;;;18.50;78.20;;;;;;4959166;28;20063;-76
2021/06/20 07:13:47;;;;;;;9.18;4.50;;;18.50;78.10;;;;;;4958971;28;20059;-77
2021/06/20 07:16:13;;;;;;;9.43;5.43;;;18.50;77.80;;;;;;4959081;28;20434;-77
2021/06/20 07:18:39;;;;;;;9.07;4.22;;;18.50;77.80;;;;;;4958753;29;20020;-77
2021/06/20 07:21:06;;;;;;;11.50;5.70;;;18.50;77.00;;;;;;4958984;28;20034;-77
2021/06/20 07:23:32;;;;;;;9.80;4.50;;;18.60;77.50;;;;;;4958586;28;20019;-77
2021/06/20 07:25:58;;;;;;;8.73;4.22;;;18.60;77.80;;;;;;4951926;28;20075;-78
2021/06/20 07:28:25;;;;;;;8.40;4.20;;;18.60;77.90;;;;;;4952944;29;20023;-80
2021/06/20 07:30:51;;;;;;;16.85;9.82;;;18.70;77.50;;;;;;4958953;28;20402;-79
2021/06/20 07:33:21;;;;;;;9.15;5.05;;;18.80;77.70;;;;;;4957463;28;20131;-79
2021/06/20 07:35:53;;;;;;;8.27;4.38;;;18.80;77.60;;;;;;4958859;28;20019;-80
2021/06/20 07:38:19;;;;;;;;;;;18.80;77.30;;;;;;4959251;29;20038;-80
2021/06/20 07:40:45;;;;;;;11.02;4.32;;;18.90;77.70;;;;;;4958718;28;19997;-79
2021/06/20 07:43:12;;;;;;;8.40;4.88;;;19.00;78.00;;;;;;4958465;28;20050;-81
2021/06/20 07:45:38;;;;;;;7.93;4.40;;;19.10;78.00;;;;;;4962222;28;20027;-77
2021/06/20 07:48:06;;;;;;;9.60;4.80;;;19.10;78.00;;;;;;4962395;28;20023;-78
2021/06/20 07:50:33;;;;;;;11.07;3.92;;;19.20;78.00;;;;;;4962606;28;20031;-78
2021/06/20 07:52:59;;;;;;;7.07;4.10;;;19.20;77.60;;;;;;4962087;28;20536;-78
2021/06/20 07:55:24;;;;;;;11.63;4.30;;;19.20;76.90;;;;;;4953115;28;20032;-77
2021/06/20 07:57:50;;;;;;;11.65;4.43;;;19.20;77.10;;;;;;4957116;29;20035;-80
2021/06/20 08:00:17;;;;;;;8.98;3.97;;;19.20;77.10;;;;;;4962217;28;20042;-79
2021/06/20 08:02:42;;;;;;;9.70;4.15;;;19.20;76.60;;;;;;4962223;28;20028;-78
2021/06/20 08:05:09;;;;;;;9.32;4.65;;;19.20;76.00;;;;;;4962205;28;20027;-79
2021/06/20 08:07:35;;;;;;;10.43;3.80;;;19.20;76.10;;;;;;4961885;28;20510;-78
2021/06/20 08:10:01;;;;;;;10.98;4.03;;;19.10;75.70;;;;;;4962061;28;20031;-79
2021/06/20 08:12:27;;;;;;;10.68;3.80;;;19.10;75.80;;;;;;4961421;28;20086;-79
2021/06/20 08:14:54;;;;;;;10.15;4.78;;;19.00;75.60;;;;;;4962004;28;20070;-79
2021/06/20 08:17:20;;;;;;;6.70;3.83;;;19.00;75.40;;;;;;4961695;28;20038;-78
2021/06/20 08:19:46;;;;;;;9.50;4.13;;;19.00;75.30;;;;;;4960686;29;20023;-80
2021/06/20 08:22:12;;;;;;;6.80;3.80;;;19.00;75.30;;;;;;4961512;28;20026;-81
2021/06/20 08:24:39;;;;;;;8.23;4.32;;;18.90;75.50;;;;;;4962003;28;20031;-81
2021/06/20 08:27:05;;;;;;;10.07;5.05;;;18.90;75.50;;;;;;4948758;28;20031;-79
2021/06/20 08:29:32;;;;;;;13.50;4.55;;;18.90;75.40;;;;;;4961911;28;20106;-79
2021/06/20 08:31:59;;;;;;;9.10;4.40;;;18.90;75.40;;;;;;4961612;28;20438;-79
2021/06/20 08:34:26;;;;;;;8.13;3.92;;;18.90;75.50;;;;;;4960669;28;20038;-81
2021/06/20 08:36:51;;;;;;;9.98;4.80;;;18.80;75.30;;;;;;4961253;28;20019;-79
2021/06/20 08:39:17;;;;;;;9.70;4.45;;;18.80;75.50;;;;;;4961482;28;20066;-79
2021/06/20 08:41:44;;;;;;;9.38;4.95;;;18.80;75.50;;;;;;4961375;29;20030;-79
2021/06/20 08:44:24;;;;;;;14.48;5.07;;;18.80;75.20;;;;;;4960015;28;20059;-80
2021/06/20 08:46:50;;;;;;;12.13;4.80;;;18.80;75.30;;;;;;4961372;28;20046;-80
2021/06/20 08:49:16;;;;;;;11.30;4.70;;;18.80;75.50;;;;;;4948713;28;20040;-79
2021/06/20 08:51:46;;;;;;;10.90;5.20;;;18.80;75.70;;;;;;4948604;29;20024;-79
2021/06/20 08:54:12;;;;;;;11.63;5.00;;;18.80;76.00;;;;;;4961107;28;20038;-79
2021/06/20 08:56:38;;;;;;;10.27;5.18;;;18.90;76.20;;;;;;4958890;28;20487;-78
2021/06/20 08:59:05;;;;;;;10.00;4.47;;;18.90;76.40;;;;;;4960904;28;20479;-78
2021/06/20 09:01:32;;;;;;;9.43;4.32;;;19.00;76.60;;;;;;4961363;28;20111;-78
2021/06/20 09:03:58;;;;;;;8.93;4.57;;;19.10;76.40;;;;;;4961001;28;20027;-77
2021/06/20 09:06:24;;;;;;;11.30;4.65;;;19.20;76.80;;;;;;4961030;28;20029;-77
2021/06/20 09:08:53;;;;;;;14.18;5.50;;;19.30;76.90;;;;;;4959386;28;20031;-78
2021/06/20 09:11:23;;;;;;;9.65;5.32;;;19.40;76.80;;;;;;4950222;29;20074;-78
2021/06/20 09:13:50;;;;;;;10.23;5.00;;;19.50;76.50;;;;;;4960773;28;20063;-78
2021/06/20 09:16:20;;;;;;;11.82;4.40;;;19.50;76.30;;;;;;4961055;28;20460;-78
2021/06/20 09:18:54;;;;;;;12.25;4.57;;;19.50;76.30;;;;;;4960887;28;20055;-80
2021/06/20 09:21:27;;;;;;;10.23;4.15;;;19.60;76.00;;;;;;4960652;29;20455;-81
2021/06/20 09:23:54;;;;;;;8.48;4.72;;;19.60;76.80;;;;;;4960606;28;20054;-83
2021/06/20 09:26:41;;;;;;;8.23;4.05;;;19.60;76.10;;;;;;4950934;28;20499;-86
2021/06/20 09:29:08;;;;;;;12.52;4.45;;;19.60;75.60;;;;;;4974024;28;20031;-85
2021/06/20 09:31:49;;;;;;;11.93;5.53;;;19.60;75.50;;;;;;4959188;29;20510;-84
2021/06/20 09:34:15;;;;;;;11.27;5.22;;;19.60;75.20;;;;;;4966131;28;20035;-85
2021/06/20 09:36:41;;;;;;;11.13;4.57;;;19.60;75.40;;;;;;4960011;28;20024;-85
2021/06/20 09:39:23;;;;;;;8.80;4.60;;;19.50;75.10;;;;;;4960538;28;20112;-85
2021/06/20 09:42:04;;;;;;;10.85;4.80;;;19.50;75.30;;;;;;4960134;28;20045;-85
2021/06/20 09:44:37;;;;;;;11.77;5.75;;;19.50;75.20;;;;;;4959027;28;20117;-86
2021/06/20 09:47:04;;;;;;;9.95;4.82;;;19.40;74.90;;;;;;4960133;28;20023;-86
2021/06/20 09:49:31;;;;;;;8.18;5.00;;;19.40;75.10;;;;;;4960143;28;20027;-85
2021/06/20 09:51:58;;;;;;;11.73;4.97;;;19.40;75.20;;;;;;4960283;28;20106;-87
2021/06/20 09:54:39;;;;;;;9.65;4.78;;;19.40;75.30;;;;;;4959355;28;20398;-83
2021/06/20 09:57:17;;;;;;;12.38;7.40;;;19.30;75.30;;;;;;4959116;28;20023;-84
2021/06/20 09:59:56;;;;;;;18.75;11.35;;;19.30;75.40;;;;;;4958611;29;20023;-84
2021/06/20 10:02:30;;;;;;;18.38;9.75;;;19.30;75.60;;;;;;4954543;29;20027;-83
2021/06/20 10:04:56;;;;;;;13.07;6.55;;;19.30;75.60;;;;;;4960254;28;20094;-87
2021/06/20 10:07:27;;;;;;;13.40;4.85;;;19.30;75.60;;;;;;4950654;28;20024;-85
2021/06/20 10:09:57;;;;;;;11.25;4.95;;;19.40;75.80;;;;;;4949948;28;20082;-83
2021/06/20 10:12:23;;;;;;;10.25;4.80;;;19.40;76.00;;;;;;4965510;28;20019;-86
2021/06/20 10:14:51;;;;;;;11.65;4.97;;;19.40;76.10;;;;;;4957769;28;20041;-85
2021/06/20 10:17:29;;;;;;;10.80;4.90;;;19.50;75.80;;;;;;4946168;29;20031;-83
2021/06/20 10:19:58;;;;;;;14.43;4.95;;;19.60;75.80;;;;;;4951191;29;20035;-85
2021/06/20 10:22:24;;;;;;;10.68;4.47;;;19.60;75.80;;;;;;4951884;28;20047;-85
2021/06/20 10:24:55;;;;;;;13.07;5.57;;;19.70;75.10;;;;;;4959128;28;20372;-85
2021/06/20 10:27:45;;;;;;;9.85;4.93;;;19.80;75.00;;;;;;4950802;28;20051;-86
2021/06/20 10:30:17;;;;;;;10.70;4.32;;;19.80;75.50;;;;;;4957969;29;20058;-91
2021/06/20 10:32:46;;;;;;;10.95;5.00;;;19.90;75.00;;;;;;4948557;29;20085;-87
2021/06/20 10:35:20;;;;;;;7.10;4.07;;;19.90;75.10;;;;;;4955983;28;20075;-77
2021/06/20 10:37:48;;;;;;;9.13;3.80;;;20.00;75.40;;;;;;4964694;28;20054;-80
2021/06/20 10:40:29;;;;;;;11.80;5.18;;;20.00;75.10;;;;;;4958575;28;20012;-82
2021/06/20 10:42:57;;;;;;;8.30;4.87;;;20.10;74.90;;;;;;4955437;29;20465;-76
2021/06/20 10:45:33;;;;;;;11.35;4.53;;;20.20;75.20;;;;;;4958738;28;20456;-76
2021/06/20 10:48:12;;;;;;;9.82;4.50;;;20.20;75.40;;;;;;4956147;28;20031;-75
2021/06/20 10:50:40;;;;;;;15.07;4.75;;;20.30;75.60;;;;;;4956653;29;20081;-80
2021/06/20 10:53:06;;;;;;;9.65;5.05;;;20.40;74.30;;;;;;4949157;28;20023;-76
2021/06/20 10:55:59;;;;;;;8.48;4.13;;;20.50;74.30;;;;;;4958269;28;20027;-73
2021/06/20 10:58:28;;;;;;;12.52;4.95;;;20.60;74.20;;;;;;4955513;28;20031;-78
2021/06/20 11:01:12;;;;;;;9.23;4.53;;;20.80;74.40;;;;;;4956404;28;20482;-78
2021/06/20 11:03:40;;;;;;;7.40;4.53;;;20.90;74.90;;;;;;4957235;28;20024;-79
2021/06/20 11:06:09;;;;;;;9.77;4.60;;;21.00;74.70;;;;;;4957218;28;20038;-77
2021/06/20 11:08:36;;;;;;;12.73;4.60;;;21.20;73.20;;;;;;4958525;28;20463;-71
2021/06/20 11:11:25;;;;;;;9.48;4.40;;;21.20;74.00;;;;;;4956863;29;20030;-74
2021/06/20 11:14:06;;;;;;;11.73;4.50;;;21.30;74.50;;;;;;4949832;29;20034;-81
2021/06/20 11:16:32;;;;;;;12.30;5.07;;;21.50;74.60;;;;;;4957197;28;20110;-75
2021/06/20 11:19:18;;;;;;;11.07;4.20;;;21.70;74.60;;;;;;4957361;28;20078;-72
2021/06/20 11:22:12;;;;;;;12.10;4.25;;;22.20;75.50;;;;;;4960613;28;20038;-72
2021/06/20 11:24:50;;;;;;;11.65;4.50;;;22.60;71.20;;;;;;4959216;29;20045;-73
2021/06/20 11:27:18;;;;;;;8.57;4.28;;;22.60;72.90;;;;;;4959828;29;20019;-71
2021/06/20 11:29:46;;;;;;;9.63;4.40;;;22.70;72.90;;;;;;4962365;28;20402;-71
2021/06/20 11:32:24;;;;;;;10.13;4.85;;;22.80;73.00;;;;;;4961374;29;20042;-72
2021/06/20 11:34:55;;;;;;;8.85;4.05;;;22.90;72.00;;;;;;4957983;28;20035;-72
2021/06/20 11:37:28;;;;;;;9.73;3.90;;;23.20;71.50;;;;;;4961876;28;20031;-71
2021/06/20 11:39:57;;;;;;;9.88;3.63;;;23.70;73.50;;;;;;4961883;28;20020;-70
2021/06/20 11:42:29;;;;;;;13.43;4.00;;;24.00;72.40;;;;;;4953822;29;20103;-69
2021/06/20 11:45:04;;;;;;;8.80;3.60;;;24.20;68.80;;;;;;4957481;29;20035;-70
2021/06/20 11:47:37;;;;;;;10.43;3.33;;;24.40;70.60;;;;;;4961523;29;20051;-70
2021/06/20 11:50:31;;;;;;;6.93;2.95;;;24.70;72.00;;;;;;4962045;28;20091;-70
2021/06/20 11:53:02;;;;;;;6.88;3.40;;;24.80;70.50;;;;;;4960007;28;20478;-70
2021/06/20 11:55:36;;;;;;;7.97;2.75;;;24.90;69.50;;;;;;4957291;29;20051;-70
2021/06/20 11:58:07;;;;;;;6.65;3.03;;;24.90;68.40;;;;;;4961391;28;20042;-71
2021/06/20 12:00:34;;;;;;;8.38;2.75;;;24.90;68.40;;;;;;4961300;29;20039;-70
2021/06/20 12:03:02;;;;;;;7.13;2.33;;;24.90;68.40;;;;;;4962037;28;20026;-71
2021/06/20 12:05:29;;;;;;;6.70;2.50;;;24.80;65.30;;;;;;4961144;28;20110;-71
2021/06/20 12:08:01;;;;;;;4.75;2.30;;;24.60;66.80;;;;;;4961786;28;20528;-71
2021/06/20 12:10:28;;;;;;;9.15;2.80;;;24.60;68.60;;;;;;4961818;28;20089;-71
2021/06/20 12:13:03;;;;;;;6.20;2.67;;;24.60;66.30;;;;;;4961183;28;20039;-71
2021/06/20 12:15:30;;;;;;;7.60;2.63;;;24.60;65.70;;;;;;4960948;29;20106;-71
2021/06/20 12:17:56;;;;;;;7.22;2.78;;;24.50;65.90;;;;;;4959479;29;20035;-70
2021/06/20 12:20:29;;;;;;;6.20;2.53;;;24.60;68.70;;;;;;4961947;28;20438;-70
2021/06/20 12:22:56;;;;;;;7.03;2.42;;;24.60;65.60;;;;;;4959832;29;20514;-70
2021/06/20 12:25:22;;;;;;;6.70;2.55;;;24.70;67.00;;;;;;4961055;28;20027;-70
2021/06/20 12:27:49;;;;;;;9.20;3.20;;;24.60;65.90;;;;;;4960979;28;20620;-70
2021/06/20 12:30:16;;;;;;;10.32;3.17;;;24.60;64.20;;;;;;4961398;28;20031;-70
2021/06/20 12:32:43;;;;;;;7.10;3.08;;;24.50;65.30;;;;;;4961920;28;20035;-70
2021/06/20 12:35:17;;;;;;;7.70;3.22;;;24.40;66.50;;;;;;4960685;29;20034;-70
2021/06/20 12:37:43;;;;;;;5.38;2.70;;;24.30;62.80;;;;;;4960637;28;20029;-70
2021/06/20 12:40:12;;;;;;;6.88;2.78;;;24.30;65.40;;;;;;4961655;29;20161;-70
2021/06/20 12:42:54;;;;;;;7.28;2.83;;;24.20;65.40;;;;;;4960281;28;20047;-70
2021/06/20 12:45:30;;;;;;;7.43;2.90;;;24.10;64.70;;;;;;4961081;28;20027;-70